sensor_id;sensor_type;location;lat;lon;timestamp;pressure;altitude;pressure_sealevel;temperature;humidity
9822;BME280;4950;46.042;14.472;2022-09-13T00:00:16;97874.66;;;17.08;78.03
9822;BME280;4950;46.042;14.472;2022-09-13T00:02:42;97877.13;;;17.03;78.29
9822;BME280;4950;46.042;14.472;2022-09-13T00:05:09;97875.53;;;17.02;78.03
9822;BME280;4950;46.042;14.472;2022-09-13T00:07:36;97871.47;;;17.06;78.02
9822;BME280;4950;46.042;14.472;2022-09-13T00:10:03;97873.50;;;17.04;78.15
9822;BME280;4950;46.042;14.472;2022-09-13T00:12:31;97872.97;;;16.95;77.98
9822;BME280;4950;46.042;14.472;2022-09-13T00:14:58;97867.78;;;16.88;78.25
9822;BME280;4950;46.042;14.472;2022-09-13T00:17:25;97866.81;;;16.83;78.52
9822;BME280;4950;46.042;14.472;2022-09-13T00:19:52;97864.38;;;16.81;79.06
9822;BME280;4950;46.042;14.472;2022-09-13T00:22:18;97862.38;;;16.83;78.77
9822;BME280;4950;46.042;14.472;2022-09-13T00:24:45;97857.53;;;16.80;78.99
9822;BME280;4950;46.042;14.472;2022-09-13T00:27:11;97861.56;;;16.83;78.61
9822;BME280;4950;46.042;14.472;2022-09-13T00:29:39;97856.91;;;16.85;78.61
9822;BME280;4950;46.042;14.472;2022-09-13T00:32:06;97862.78;;;16.80;78.59
9822;BME280;4950;46.042;14.472;2022-09-13T00:34:35;97860.56;;;16.84;78.21
9822;BME280;4950;46.042;14.472;2022-09-13T00:37:02;97863.41;;;16.75;77.59
9822;BME280;4950;46.042;14.472;2022-09-13T00:39:29;97863.66;;;16.74;77.56
9822;BME280;4950;46.042;14.472;2022-09-13T00:41:55;97863.84;;;16.72;77.80
9822;BME280;4950;46.042;14.472;2022-09-13T00:44:55;97859.59;;;16.71;77.92
9822;BME280;4950;46.042;14.472;2022-09-13T00:47:25;97858.81;;;16.71;77.82
9822;BME280;4950;46.042;14.472;2022-09-13T00:49:59;97856.41;;;16.69;77.75
9822;BME280;4950;46.042;14.472;2022-09-13T00:52:29;97856.84;;;16.66;78.62
9822;BME280;4950;46.042;14.472;2022-09-13T00:54:59;97859.84;;;16.70;77.88
9822;BME280;4950;46.042;14.472;2022-09-13T00:57:27;97857.63;;;16.67;77.90
9822;BME280;4950;46.042;14.472;2022-09-13T00:59:59;97864.91;;;16.65;78.69
9822;BME280;4950;46.042;14.472;2022-09-13T01:02:31;97863.69;;;16.67;78.27
9822;BME280;4950;46.042;14.472;2022-09-13T01:04:58;97857.84;;;16.65;78.31
9822;BME280;4950;46.042;14.472;2022-09-13T01:07:25;97861.31;;;16.59;78.92
9822;BME280;4950;46.042;14.472;2022-09-13T01:09:52;97855.31;;;16.52;78.84
9822;BME280;4950;46.042;14.472;2022-09-13T01:12:27;97858.53;;;16.54;78.94
9822;BME280;4950;46.042;14.472;2022-09-13T01:15:00;97857.31;;;16.56;78.72
9822;BME280;4950;46.042;14.472;2022-09-13T01:17:30;97856.94;;;16.53;79.00
9822;BME280;4950;46.042;14.472;2022-09-13T01:19:58;97851.31;;;16.49;79.22
9822;BME280;4950;46.042;14.472;2022-09-13T01:22:51;97852.56;;;16.47;78.63
9822;BME280;4950;46.042;14.472;2022-09-13T01:25:49;97851.72;;;16.46;78.22
9822;BME280;4950;46.042;14.472;2022-09-13T01:28:54;97853.56;;;16.46;77.93
9822;BME280;4950;46.042;14.472;2022-09-13T01:31:30;97847.72;;;16.44;77.76
9822;BME280;4950;46.042;14.472;2022-09-13T01:34:08;97848.97;;;16.41;77.88
9822;BME280;4950;46.042;14.472;2022-09-13T01:37:03;97844.78;;;16.33;78.17
9822;BME280;4950;46.042;14.472;2022-09-13T01:39:44;97848.84;;;16.29;78.20
9822;BME280;4950;46.042;14.472;2022-09-13T01:42:20;97837.34;;;16.30;78.29
9822;BME280;4950;46.042;14.472;2022-09-13T01:45:03;97844.84;;;16.27;78.57
9822;BME280;4950;46.042;14.472;2022-09-13T01:47:39;97842.03;;;16.22;78.86
9822;BME280;4950;46.042;14.472;2022-09-13T01:50:15;97847.69;;;16.18;79.46
9822;BME280;4950;46.042;14.472;2022-09-13T01:52:49;97841.47;;;16.13;79.50
9822;BME280;4950;46.042;14.472;2022-09-13T01:55:24;97836.81;;;16.15;79.73
9822;BME280;4950;46.042;14.472;2022-09-13T01:57:55;97843.28;;;16.12;79.81
9822;BME280;4950;46.042;14.472;2022-09-13T02:00:26;97841.09;;;16.09;79.66
9822;BME280;4950;46.042;14.472;2022-09-13T02:03:00;97835.88;;;16.09;79.72
9822;BME280;4950;46.042;14.472;2022-09-13T02:05:32;97832.88;;;16.06;79.93
9822;BME280;4950;46.042;14.472;2022-09-13T02:08:06;97832.69;;;16.01;79.66
9822;BME280;4950;46.042;14.472;2022-09-13T02:10:37;97822.41;;;15.99;80.05
9822;BME280;4950;46.042;14.472;2022-09-13T02:13:10;97816.00;;;15.95;80.25
9822;BME280;4950;46.042;14.472;2022-09-13T02:15:41;97821.28;;;15.88;80.03
9822;BME280;4950;46.042;14.472;2022-09-13T02:18:15;97815.84;;;15.90;80.40
9822;BME280;4950;46.042;14.472;2022-09-13T02:20:46;97815.44;;;15.86;80.73
9822;BME280;4950;46.042;14.472;2022-09-13T02:23:16;97819.50;;;15.82;81.13
9822;BME280;4950;46.042;14.472;2022-09-13T02:25:45;97823.31;;;15.79;81.12
9822;BME280;4950;46.042;14.472;2022-09-13T02:28:18;97815.47;;;15.79;80.94
9822;BME280;4950;46.042;14.472;2022-09-13T02:30:49;97818.91;;;15.80;80.70
9822;BME280;4950;46.042;14.472;2022-09-13T02:33:22;97821.94;;;15.77;80.59
9822;BME280;4950;46.042;14.472;2022-09-13T02:35:52;97825.78;;;15.74;80.99
9822;BME280;4950;46.042;14.472;2022-09-13T02:38:24;97819.50;;;15.75;81.12
9822;BME280;4950;46.042;14.472;2022-09-13T02:40:58;97819.91;;;15.79;80.43
9822;BME280;4950;46.042;14.472;2022-09-13T02:43:30;97811.88;;;15.74;80.56
9822;BME280;4950;46.042;14.472;2022-09-13T02:46:08;97823.97;;;15.68;81.05
9822;BME280;4950;46.042;14.472;2022-09-13T02:48:48;97816.72;;;15.70;80.90
9822;BME280;4950;46.042;14.472;2022-09-13T02:51:23;97813.50;;;15.68;81.07
9822;BME280;4950;46.042;14.472;2022-09-13T02:53:54;97822.34;;;15.67;80.70
9822;BME280;4950;46.042;14.472;2022-09-13T02:56:30;97822.38;;;15.60;81.00
9822;BME280;4950;46.042;14.472;2022-09-13T02:59:03;97817.94;;;15.54;81.14
9822;BME280;4950;46.042;14.472;2022-09-13T03:01:34;97820.81;;;15.53;81.40
9822;BME280;4950;46.042;14.472;2022-09-13T03:04:04;97815.97;;;15.50;81.56
9822;BME280;4950;46.042;14.472;2022-09-13T03:06:31;97814.38;;;15.49;82.03
9822;BME280;4950;46.042;14.472;2022-09-13T03:09:00;97817.59;;;15.51;81.44
9822;BME280;4950;46.042;14.472;2022-09-13T03:11:37;97816.75;;;15.50;81.64
9822;BME280;4950;46.042;14.472;2022-09-13T03:14:17;97815.63;;;15.39;81.47
9822;BME280;4950;46.042;14.472;2022-09-13T03:17:05;97809.19;;;15.35;81.52
9822;BME280;4950;46.042;14.472;2022-09-13T03:19:45;97824.44;;;15.38;81.56
9822;BME280;4950;46.042;14.472;2022-09-13T03:22:29;97822.88;;;15.37;81.45
9822;BME280;4950;46.042;14.472;2022-09-13T03:25:05;97831.31;;;15.39;81.39
9822;BME280;4950;46.042;14.472;2022-09-13T03:27:35;97828.28;;;15.36;81.32
9822;BME280;4950;46.042;14.472;2022-09-13T03:30:04;97822.06;;;15.37;81.35
9822;BME280;4950;46.042;14.472;2022-09-13T03:32:35;97819.66;;;15.35;81.48
9822;BME280;4950;46.042;14.472;2022-09-13T03:35:14;97828.09;;;15.37;81.28
9822;BME280;4950;46.042;14.472;2022-09-13T03:37:48;97822.66;;;15.39;81.42
9822;BME280;4950;46.042;14.472;2022-09-13T03:40:23;97819.66;;;15.35;81.54
9822;BME280;4950;46.042;14.472;2022-09-13T03:42:57;97818.81;;;15.35;81.57
9822;BME280;4950;46.042;14.472;2022-09-13T03:45:32;97819.66;;;15.35;81.86
9822;BME280;4950;46.042;14.472;2022-09-13T03:48:02;97821.44;;;15.35;81.26
9822;BME280;4950;46.042;14.472;2022-09-13T03:50:31;97814.66;;;15.27;80.94
9822;BME280;4950;46.042;14.472;2022-09-13T03:53:01;97819.50;;;15.24;81.12
9822;BME280;4950;46.042;14.472;2022-09-13T03:55:29;97809.03;;;15.17;81.52
9822;BME280;4950;46.042;14.472;2022-09-13T03:57:57;97815.69;;;15.19;81.69
9822;BME280;4950;46.042;14.472;2022-09-13T04:00:24;97825.91;;;15.21;81.88
9822;BME280;4950;46.042;14.472;2022-09-13T04:02:51;97831.34;;;15.26;81.41
9822;BME280;4950;46.042;14.472;2022-09-13T04:05:17;97832.72;;;15.29;81.39
9822;BME280;4950;46.042;14.472;2022-09-13T04:07:45;97820.09;;;15.26;81.54
9822;BME280;4950;46.042;14.472;2022-09-13T04:10:12;97822.50;;;15.27;81.44
9822;BME280;4950;46.042;14.472;2022-09-13T04:12:39;97808.44;;;15.22;81.70
9822;BME280;4950;46.042;14.472;2022-09-13T04:15:07;97813.66;;;15.22;81.78
9822;BME280;4950;46.042;14.472;2022-09-13T04:17:34;97809.59;;;15.32;81.81
9822;BME280;4950;46.042;14.472;2022-09-13T04:20:01;97802.16;;;15.29;81.61
9822;BME280;4950;46.042;14.472;2022-09-13T04:22:28;97792.69;;;15.28;81.40
9822;BME280;4950;46.042;14.472;2022-09-13T04:24:57;97800.56;;;15.28;81.69
9822;BME280;4950;46.042;14.472;2022-09-13T04:27:24;97797.53;;;15.25;81.09
9822;BME280;4950;46.042;14.472;2022-09-13T04:29:50;97795.94;;;15.24;81.32
9822;BME280;4950;46.042;14.472;2022-09-13T04:32:17;97800.19;;;15.18;81.46
9822;BME280;4950;46.042;14.472;2022-09-13T04:34:43;97794.53;;;15.21;81.81
9822;BME280;4950;46.042;14.472;2022-09-13T04:37:12;97788.50;;;15.27;82.01
9822;BME280;4950;46.042;14.472;2022-09-13T04:39:38;97796.72;;;15.31;82.84
9822;BME280;4950;46.042;14.472;2022-09-13T04:42:06;97802.34;;;15.34;82.32
9822;BME280;4950;46.042;14.472;2022-09-13T04:44:35;97799.56;;;15.29;81.74
9822;BME280;4950;46.042;14.472;2022-09-13T04:47:03;97812.22;;;15.32;81.77
9822;BME280;4950;46.042;14.472;2022-09-13T04:49:29;97812.00;;;15.34;81.14
9822;BME280;4950;46.042;14.472;2022-09-13T04:51:56;97814.81;;;15.32;81.21
9822;BME280;4950;46.042;14.472;2022-09-13T04:54:23;97810.41;;;15.26;81.53
9822;BME280;4950;46.042;14.472;2022-09-13T04:56:49;97808.19;;;15.23;81.23
9822;BME280;4950;46.042;14.472;2022-09-13T04:59:17;97813.25;;;15.18;81.75
9822;BME280;4950;46.042;14.472;2022-09-13T05:01:44;97807.22;;;15.17;81.92
9822;BME280;4950;46.042;14.472;2022-09-13T05:04:10;97816.06;;;15.16;82.35
9822;BME280;4950;46.042;14.472;2022-09-13T05:06:37;97823.75;;;15.05;82.32
9822;BME280;4950;46.042;14.472;2022-09-13T05:09:04;97821.34;;;14.96;83.03
9822;BME280;4950;46.042;14.472;2022-09-13T05:11:31;97820.75;;;14.94;82.88
9822;BME280;4950;46.042;14.472;2022-09-13T05:13:59;97826.78;;;14.95;82.76
9822;BME280;4950;46.042;14.472;2022-09-13T05:16:29;97830.22;;;14.75;82.88
9822;BME280;4950;46.042;14.472;2022-09-13T05:18:56;97829.56;;;14.47;84.53
9822;BME280;4950;46.042;14.472;2022-09-13T05:21:23;97839.22;;;14.39;85.38
9822;BME280;4950;46.042;14.472;2022-09-13T05:23:51;97832.19;;;14.47;84.84
9822;BME280;4950;46.042;14.472;2022-09-13T05:26:19;97839.22;;;14.46;84.73
9822;BME280;4950;46.042;14.472;2022-09-13T05:28:46;97838.81;;;14.42;84.96
9822;BME280;4950;46.042;14.472;2022-09-13T05:31:15;97837.81;;;14.50;84.88
9822;BME280;4950;46.042;14.472;2022-09-13T05:33:44;97827.16;;;14.52;84.62
9822;BME280;4950;46.042;14.472;2022-09-13T05:36:11;97829.41;;;14.55;84.79
9822;BME280;4950;46.042;14.472;2022-09-13T05:38:38;97825.78;;;14.49;84.65
9822;BME280;4950;46.042;14.472;2022-09-13T05:41:05;97823.94;;;14.50;84.60
9822;BME280;4950;46.042;14.472;2022-09-13T05:43:34;97818.72;;;14.50;84.59
9822;BME280;4950;46.042;14.472;2022-09-13T05:46:02;97826.56;;;14.50;84.78
9822;BME280;4950;46.042;14.472;2022-09-13T05:48:30;97819.13;;;14.53;84.91
9822;BME280;4950;46.042;14.472;2022-09-13T05:51:04;97825.78;;;14.63;84.42
9822;BME280;4950;46.042;14.472;2022-09-13T05:53:31;97822.97;;;14.57;84.70
9822;BME280;4950;46.042;14.472;2022-09-13T05:55:58;97824.19;;;14.61;84.89
9822;BME280;4950;46.042;14.472;2022-09-13T05:58:25;97815.94;;;14.58;84.84
9822;BME280;4950;46.042;14.472;2022-09-13T06:00:52;97821.78;;;14.60;85.31
9822;BME280;4950;46.042;14.472;2022-09-13T06:03:19;97813.31;;;14.65;85.80
9822;BME280;4950;46.042;14.472;2022-09-13T06:05:46;97818.56;;;14.58;86.38
9822;BME280;4950;46.042;14.472;2022-09-13T06:08:14;97818.16;;;14.68;86.17
9822;BME280;4950;46.042;14.472;2022-09-13T06:10:41;97808.09;;;14.71;86.45
9822;BME280;4950;46.042;14.472;2022-09-13T06:13:08;97810.31;;;14.68;86.55
9822;BME280;4950;46.042;14.472;2022-09-13T06:15:34;97806.09;;;14.67;86.68
9822;BME280;4950;46.042;14.472;2022-09-13T06:18:01;97801.66;;;14.74;86.88
9822;BME280;4950;46.042;14.472;2022-09-13T06:20:27;97810.09;;;14.83;87.26
9822;BME280;4950;46.042;14.472;2022-09-13T06:22:55;97813.91;;;14.87;87.20
9822;BME280;4950;46.042;14.472;2022-09-13T06:25:23;97815.13;;;14.91;86.83
9822;BME280;4950;46.042;14.472;2022-09-13T06:27:49;97817.72;;;14.97;86.64
9822;BME280;4950;46.042;14.472;2022-09-13T06:30:16;97807.84;;;14.99;86.48
9822;BME280;4950;46.042;14.472;2022-09-13T06:32:43;97801.44;;;15.02;86.01
9822;BME280;4950;46.042;14.472;2022-09-13T06:35:10;97800.63;;;14.95;86.27
9822;BME280;4950;46.042;14.472;2022-09-13T06:37:36;97799.03;;;15.00;86.37
9822;BME280;4950;46.042;14.472;2022-09-13T06:40:04;97798.00;;;15.08;86.56
9822;BME280;4950;46.042;14.472;2022-09-13T06:42:35;97793.56;;;15.15;85.95
9822;BME280;4950;46.042;14.472;2022-09-13T06:45:03;97794.72;;;15.26;85.96
9822;BME280;4950;46.042;14.472;2022-09-13T06:47:29;97792.69;;;15.28;85.90
9822;BME280;4950;46.042;14.472;2022-09-13T06:49:56;97786.88;;;15.26;85.66
9822;BME280;4950;46.042;14.472;2022-09-13T06:52:23;97787.88;;;15.25;86.10
9822;BME280;4950;46.042;14.472;2022-09-13T06:54:50;97799.53;;;15.36;85.93
9822;BME280;4950;46.042;14.472;2022-09-13T06:57:16;97805.53;;;15.43;85.90
9822;BME280;4950;46.042;14.472;2022-09-13T06:59:44;97799.28;;;15.51;85.44
9822;BME280;4950;46.042;14.472;2022-09-13T07:02:11;97793.81;;;15.59;85.35
9822;BME280;4950;46.042;14.472;2022-09-13T07:04:38;97790.75;;;15.69;85.19
9822;BME280;4950;46.042;14.472;2022-09-13T07:07:05;97788.94;;;15.76;85.23
9822;BME280;4950;46.042;14.472;2022-09-13T07:09:32;97790.84;;;15.87;84.77
9822;BME280;4950;46.042;14.472;2022-09-13T07:11:59;97782.97;;;15.94;84.53
9822;BME280;4950;46.042;14.472;2022-09-13T07:14:27;97786.53;;;16.06;84.24
9822;BME280;4950;46.042;14.472;2022-09-13T07:16:55;97786.69;;;16.11;83.96
9822;BME280;4950;46.042;14.472;2022-09-13T07:19:23;97790.94;;;16.37;82.60
9822;BME280;4950;46.042;14.472;2022-09-13T07:21:51;97781.69;;;16.35;82.89
9822;BME280;4950;46.042;14.472;2022-09-13T07:24:19;97794.34;;;16.38;83.04
9822;BME280;4950;46.042;14.472;2022-09-13T07:26:47;97793.72;;;16.43;82.40
9822;BME280;4950;46.042;14.472;2022-09-13T07:29:15;97791.41;;;16.53;82.27
9822;BME280;4950;46.042;14.472;2022-09-13T07:31:45;97798.00;;;16.62;81.74
9822;BME280;4950;46.042;14.472;2022-09-13T07:34:14;97796.69;;;16.71;80.49
9822;BME280;4950;46.042;14.472;2022-09-13T07:36:42;97787.63;;;16.74;80.66
9822;BME280;4950;46.042;14.472;2022-09-13T07:39:09;97778.31;;;16.78;80.48
9822;BME280;4950;46.042;14.472;2022-09-13T07:41:36;97769.59;;;16.84;80.51
9822;BME280;4950;46.042;14.472;2022-09-13T07:44:03;97770.34;;;16.91;80.40
9822;BME280;4950;46.042;14.472;2022-09-13T07:46:33;97768.06;;;17.13;80.36
9822;BME280;4950;46.042;14.472;2022-09-13T07:49:01;97760.84;;;17.27;79.26
9822;BME280;4950;46.042;14.472;2022-09-13T07:51:30;97762.97;;;17.37;79.06
9822;BME280;4950;46.042;14.472;2022-09-13T07:53:58;97766.91;;;17.46;78.48
9822;BME280;4950;46.042;14.472;2022-09-13T07:56:27;97765.22;;;17.52;78.22
9822;BME280;4950;46.042;14.472;2022-09-13T07:58:54;97767.94;;;17.57;77.78
9822;BME280;4950;46.042;14.472;2022-09-13T08:01:22;97765.75;;;17.72;76.81
9822;BME280;4950;46.042;14.472;2022-09-13T08:03:50;97765.75;;;17.72;77.38
9822;BME280;4950;46.042;14.472;2022-09-13T08:06:17;97761.34;;;17.85;77.33
9822;BME280;4950;46.042;14.472;2022-09-13T08:08:45;97758.66;;;18.03;76.23
9822;BME280;4950;46.042;14.472;2022-09-13T08:11:15;97749.31;;;18.07;75.22
9822;BME280;4950;46.042;14.472;2022-09-13T08:13:43;97760.28;;;18.16;75.16
9822;BME280;4950;46.042;14.472;2022-09-13T08:16:10;97761.78;;;18.24;75.43
9822;BME280;4950;46.042;14.472;2022-09-13T08:18:37;97752.69;;;18.38;74.82
9822;BME280;4950;46.042;14.472;2022-09-13T08:21:03;97754.97;;;18.46;74.51
9822;BME280;4950;46.042;14.472;2022-09-13T08:23:30;97750.50;;;18.59;73.62
9822;BME280;4950;46.042;14.472;2022-09-13T08:26:03;97752.44;;;18.75;73.25
9822;BME280;4950;46.042;14.472;2022-09-13T08:28:30;97749.84;;;18.87;72.82
9822;BME280;4950;46.042;14.472;2022-09-13T08:31:02;97745.56;;;18.98;72.37
9822;BME280;4950;46.042;14.472;2022-09-13T08:33:29;97755.75;;;19.06;72.12
9822;BME280;4950;46.042;14.472;2022-09-13T08:35:55;97744.88;;;19.14;71.49
9822;BME280;4950;46.042;14.472;2022-09-13T08:38:22;97738.88;;;19.30;72.16
9822;BME280;4950;46.042;14.472;2022-09-13T08:40:52;97734.91;;;19.45;72.00
9822;BME280;4950;46.042;14.472;2022-09-13T08:43:27;97740.09;;;19.68;71.54
9822;BME280;4950;46.042;14.472;2022-09-13T08:45:59;97744.63;;;19.85;70.40
9822;BME280;4950;46.042;14.472;2022-09-13T08:48:31;97748.44;;;20.06;69.47
9822;BME280;4950;46.042;14.472;2022-09-13T08:51:02;97745.63;;;20.29;69.05
9822;BME280;4950;46.042;14.472;2022-09-13T08:53:31;97737.31;;;20.38;67.76
9822;BME280;4950;46.042;14.472;2022-09-13T08:56:05;97735.38;;;20.50;67.52
9822;BME280;4950;46.042;14.472;2022-09-13T08:58:49;97731.69;;;20.68;67.13
9822;BME280;4950;46.042;14.472;2022-09-13T09:01:24;97717.69;;;20.84;66.40
9822;BME280;4950;46.042;14.472;2022-09-13T09:04:00;97708.09;;;21.00;66.48
9822;BME280;4950;46.042;14.472;2022-09-13T09:06:29;97711.63;;;21.06;65.32
9822;BME280;4950;46.042;14.472;2022-09-13T09:08:59;97709.38;;;21.20;65.14
9822;BME280;4950;46.042;14.472;2022-09-13T09:11:34;97705.81;;;21.31;65.38
9822;BME280;4950;46.042;14.472;2022-09-13T09:14:11;97711.88;;;21.54;64.34
9822;BME280;4950;46.042;14.472;2022-09-13T09:16:45;97699.66;;;21.75;63.84
9822;BME280;4950;46.042;14.472;2022-09-13T09:19:19;97694.06;;;21.98;63.25
9822;BME280;4950;46.042;14.472;2022-09-13T09:21:49;97686.47;;;22.12;62.05
9822;BME280;4950;46.042;14.472;2022-09-13T09:24:20;97694.75;;;22.21;62.47
9822;BME280;4950;46.042;14.472;2022-09-13T09:26:47;97694.38;;;22.39;62.12
9822;BME280;4950;46.042;14.472;2022-09-13T09:29:20;97687.84;;;22.57;61.62
9822;BME280;4950;46.042;14.472;2022-09-13T09:31:56;97684.50;;;22.72;61.04
9822;BME280;4950;46.042;14.472;2022-09-13T09:34:32;97682.22;;;22.91;60.63
9822;BME280;4950;46.042;14.472;2022-09-13T09:37:12;97682.00;;;23.08;60.19
9822;BME280;4950;46.042;14.472;2022-09-13T09:39:42;97680.22;;;23.29;60.53
9822;BME280;4950;46.042;14.472;2022-09-13T09:42:11;97676.28;;;23.42;61.08
9822;BME280;4950;46.042;14.472;2022-09-13T09:44:42;97669.41;;;23.56;59.32
9822;BME280;4950;46.042;14.472;2022-09-13T09:47:14;97665.69;;;23.62;58.85
9822;BME280;4950;46.042;14.472;2022-09-13T09:49:44;97647.69;;;23.75;58.57
9822;BME280;4950;46.042;14.472;2022-09-13T09:52:32;97649.84;;;23.98;57.75
9822;BME280;4950;46.042;14.472;2022-09-13T09:55:13;97657.75;;;24.14;58.00
9822;BME280;4950;46.042;14.472;2022-09-13T09:57:49;97663.06;;;24.24;56.79
9822;BME280;4950;46.042;14.472;2022-09-13T10:00:18;97651.59;;;24.39;57.03
9822;BME280;4950;46.042;14.472;2022-09-13T10:02:46;97651.06;;;24.37;56.79
9822;BME280;4950;46.042;14.472;2022-09-13T10:05:17;97651.59;;;24.59;56.78
9822;BME280;4950;46.042;14.472;2022-09-13T10:07:52;97650.19;;;24.77;53.10
9822;BME280;4950;46.042;14.472;2022-09-13T10:10:23;97653.09;;;24.81;52.80
9822;BME280;4950;46.042;14.472;2022-09-13T10:12:52;97660.22;;;24.96;52.79
9822;BME280;4950;46.042;14.472;2022-09-13T10:15:24;97657.81;;;24.94;53.17
9822;BME280;4950;46.042;14.472;2022-09-13T10:18:09;97664.88;;;25.14;53.05
9822;BME280;4950;46.042;14.472;2022-09-13T10:20:39;97648.84;;;25.35;52.58
9822;BME280;4950;46.042;14.472;2022-09-13T10:23:23;97646.56;;;25.57;50.83
9822;BME280;4950;46.042;14.472;2022-09-13T10:25:57;97634.53;;;25.65;50.87
9822;BME280;4950;46.042;14.472;2022-09-13T10:28:27;97627.00;;;25.77;51.01
9822;BME280;4950;46.042;14.472;2022-09-13T10:30:58;97625.94;;;25.78;50.49
9822;BME280;4950;46.042;14.472;2022-09-13T10:33:29;97634.47;;;25.75;49.72
9822;BME280;4950;46.042;14.472;2022-09-13T10:35:59;97629.56;;;25.93;49.89
9822;BME280;4950;46.042;14.472;2022-09-13T10:38:35;97630.94;;;26.14;49.65
9822;BME280;4950;46.042;14.472;2022-09-13T10:41:04;97627.88;;;26.26;48.73
9822;BME280;4950;46.042;14.472;2022-09-13T10:43:32;97635.56;;;26.33;48.68
9822;BME280;4950;46.042;14.472;2022-09-13T10:46:03;97639.13;;;26.23;48.32
9822;BME280;4950;46.042;14.472;2022-09-13T10:48:43;97625.44;;;26.06;49.16
9822;BME280;4950;46.042;14.472;2022-09-13T10:51:20;97618.34;;;26.25;49.07
9822;BME280;4950;46.042;14.472;2022-09-13T10:54:17;97619.03;;;26.07;49.30
9822;BME280;4950;46.042;14.472;2022-09-13T10:56:45;97614.28;;;26.04;49.50
9822;BME280;4950;46.042;14.472;2022-09-13T10:59:19;97613.94;;;26.34;49.63
9822;BME280;4950;46.042;14.472;2022-09-13T11:01:55;97623.94;;;26.48;48.72
9822;BME280;4950;46.042;14.472;2022-09-13T11:05:08;97620.56;;;26.66;48.09
9822;BME280;4950;46.042;14.472;2022-09-13T11:07:49;97609.25;;;26.74;47.71
9822;BME280;4950;46.042;14.472;2022-09-13T11:10:24;97614.16;;;26.86;47.81
9822;BME280;4950;46.042;14.472;2022-09-13T11:13:00;97618.19;;;27.03;47.76
9822;BME280;4950;46.042;14.472;2022-09-13T11:15:44;97610.81;;;27.18;46.57
9822;BME280;4950;46.042;14.472;2022-09-13T11:18:30;97609.38;;;27.26;45.97
9822;BME280;4950;46.042;14.472;2022-09-13T11:21:08;97619.59;;;27.19;46.04
9822;BME280;4950;46.042;14.472;2022-09-13T11:24:05;97604.31;;;26.87;47.26
9822;BME280;4950;46.042;14.472;2022-09-13T11:26:45;97600.13;;;27.18;47.06
9822;BME280;4950;46.042;14.472;2022-09-13T11:29:27;97603.03;;;27.03;46.43
9822;BME280;4950;46.042;14.472;2022-09-13T11:32:07;97598.03;;;27.15;46.75
9822;BME280;4950;46.042;14.472;2022-09-13T11:34:44;97596.97;;;27.35;46.54
9822;BME280;4950;46.042;14.472;2022-09-13T11:37:29;97593.94;;;27.42;45.66
9822;BME280;4950;46.042;14.472;2022-09-13T11:40:21;97597.94;;;27.58;45.56
9822;BME280;4950;46.042;14.472;2022-09-13T11:42:58;97587.94;;;27.83;45.18
9822;BME280;4950;46.042;14.472;2022-09-13T11:45:29;97608.84;;;27.95;44.76
9822;BME280;4950;46.042;14.472;2022-09-13T11:48:12;97592.72;;;28.14;44.73
9822;BME280;4950;46.042;14.472;2022-09-13T11:50:51;97599.38;;;28.30;44.16
9822;BME280;4950;46.042;14.472;2022-09-13T11:53:38;97594.53;;;28.19;43.60
9822;BME280;4950;46.042;14.472;2022-09-13T11:56:19;97615.19;;;27.80;44.51
9822;BME280;4950;46.042;14.472;2022-09-13T11:58:51;97607.53;;;27.92;44.89
9822;BME280;4950;46.042;14.472;2022-09-13T12:01:21;97605.56;;;27.98;44.20
9822;BME280;4950;46.042;14.472;2022-09-13T12:03:55;97606.19;;;28.09;43.86
9822;BME280;4950;46.042;14.472;2022-09-13T12:06:30;97603.41;;;28.14;44.62
9822;BME280;4950;46.042;14.472;2022-09-13T12:09:02;97609.22;;;28.16;43.51
9822;BME280;4950;46.042;14.472;2022-09-13T12:11:33;97604.38;;;28.04;43.51
9822;BME280;4950;46.042;14.472;2022-09-13T12:14:02;97602.31;;;28.15;44.12
9822;BME280;4950;46.042;14.472;2022-09-13T12:16:32;97605.38;;;28.08;43.40
9822;BME280;4950;46.042;14.472;2022-09-13T12:19:04;97595.38;;;28.14;43.71
9822;BME280;4950;46.042;14.472;2022-09-13T12:21:36;97593.09;;;27.93;44.18
9822;BME280;4950;46.042;14.472;2022-09-13T12:24:10;97600.00;;;27.94;44.49
9822;BME280;4950;46.042;14.472;2022-09-13T12:26:40;97588.69;;;28.03;43.59
9822;BME280;4950;46.042;14.472;2022-09-13T12:29:13;97587.47;;;27.95;44.82
9822;BME280;4950;46.042;14.472;2022-09-13T12:31:42;97587.97;;;27.97;44.05
9822;BME280;4950;46.042;14.472;2022-09-13T12:34:16;97591.06;;;27.71;44.82
9822;BME280;4950;46.042;14.472;2022-09-13T12:37:07;97589.78;;;27.83;44.84
9822;BME280;4950;46.042;14.472;2022-09-13T12:39:52;97590.75;;;28.06;43.97
9822;BME280;4950;46.042;14.472;2022-09-13T12:43:03;97595.50;;;28.23;43.54
9822;BME280;4950;46.042;14.472;2022-09-13T12:45:51;97586.19;;;28.06;44.33
9822;BME280;4950;46.042;14.472;2022-09-13T12:48:35;97591.16;;;28.13;44.13
9822;BME280;4950;46.042;14.472;2022-09-13T12:51:14;97581.75;;;28.02;44.21
9822;BME280;4950;46.042;14.472;2022-09-13T12:57:01;97580.00;;;27.45;45.73
9822;BME280;4950;46.042;14.472;2022-09-13T12:59:54;97595.34;;;27.53;45.55
9822;BME280;4950;46.042;14.472;2022-09-13T13:02:31;97599.63;;;27.68;44.65
9822;BME280;4950;46.042;14.472;2022-09-13T13:05:02;97604.75;;;27.65;44.61
9822;BME280;4950;46.042;14.472;2022-09-13T13:07:32;97595.63;;;27.85;44.92
9822;BME280;4950;46.042;14.472;2022-09-13T13:10:00;97605.34;;;27.94;44.98
9822;BME280;4950;46.042;14.472;2022-09-13T13:12:31;97593.69;;;28.04;44.44
9822;BME280;4950;46.042;14.472;2022-09-13T13:14:59;97599.50;;;27.92;44.73
9822;BME280;4950;46.042;14.472;2022-09-13T13:17:39;97612.69;;;28.03;45.09
9822;BME280;4950;46.042;14.472;2022-09-13T13:20:41;97594.63;;;27.81;45.08
9822;BME280;4950;46.042;14.472;2022-09-13T13:23:24;97598.72;;;27.59;45.91
9822;BME280;4950;46.042;14.472;2022-09-13T13:26:10;97594.38;;;27.63;45.37
9822;BME280;4950;46.042;14.472;2022-09-13T13:29:04;97608.63;;;27.21;46.32
9822;BME280;4950;46.042;14.472;2022-09-13T13:31:39;97605.03;;;27.11;46.53
9822;BME280;4950;46.042;14.472;2022-09-13T13:34:28;97599.53;;;27.22;46.51
9822;BME280;4950;46.042;14.472;2022-09-13T13:36:59;97600.50;;;27.50;46.49
9822;BME280;4950;46.042;14.472;2022-09-13T13:39:38;97599.53;;;27.60;45.17